sensor_id;sensor_type;location;lat;lon;timestamp;pressure;altitude;pressure_sealevel;temperature;humidity
31538;BME280;18147;51.952;6.146;2023-03-03T00:01:53;102452.97;;;0.66;100.00
31538;BME280;18147;51.952;6.146;2023-03-03T00:04:18;102447.69;;;0.64;100.00
31538;BME280;18147;51.952;6.146;2023-03-03T00:06:44;102452.09;;;0.74;100.00
31538;BME280;18147;51.952;6.146;2023-03-03T00:09:10;102447.78;;;0.83;100.00
31538;BME280;18147;51.952;6.146;2023-03-03T00:11:35;102447.75;;;0.78;100.00
31538;BME280;18147;51.952;6.146;2023-03-03T00:14:00;102444.28;;;0.90;100.00
31538;BME280;18147;51.952;6.146;2023-03-03T00:16:52;102444.28;;;0.82;100.00
31538;BME280;18147;51.952;6.146;2023-03-03T00:19:19;102445.13;;;0.72;100.00
31538;BME280;18147;51.952;6.146;2023-03-03T00:21:48;102446.94;;;0.91;100.00
31538;BME280;18147;51.952;6.146;2023-03-03T00:26:52;102455.66;;;0.90;100.00
31538;BME280;18147;51.952;6.146;2023-03-03T00:32:39;102452.16;;;0.90;100.00
31538;BME280;18147;51.952;6.146;2023-03-03T00:37:59;102442.53;;;0.89;100.00
31538;BME280;18147;51.952;6.146;2023-03-03T00:42:57;102445.19;;;0.96;100.00
31538;BME280;18147;51.952;6.146;2023-03-03T00:45:42;102447.78;;;0.93;100.00
31538;BME280;18147;51.952;6.146;2023-03-03T00:48:29;102447.78;;;0.95;100.00
31538;BME280;18147;51.952;6.146;2023-03-03T00:51:00;102453.91;;;0.95;100.00
31538;BME280;18147;51.952;6.146;2023-03-03T00:53:28;102451.31;;;0.91;100.00
31538;BME280;18147;51.952;6.146;2023-03-03T00:55:54;102456.56;;;0.97;100.00
31538;BME280;18147;51.952;6.146;2023-03-03T00:58:21;102460.91;;;0.87;100.00
31538;BME280;18147;51.952;6.146;2023-03-03T01:00:52;102446.84;;;0.62;100.00
31538;BME280;18147;51.952;6.146;2023-03-03T01:03:24;102442.44;;;0.57;100.00
31538;BME280;18147;51.952;6.146;2023-03-03T01:05:51;102444.22;;;0.70;100.00
31538;BME280;18147;51.952;6.146;2023-03-03T01:08:17;102447.75;;;0.70;100.00
31538;BME280;18147;51.952;6.146;2023-03-03T01:10:51;102451.22;;;0.62;100.00
31538;BME280;18147;51.952;6.146;2023-03-03T01:13:19;102452.09;;;0.65;100.00
31538;BME280;18147;51.952;6.146;2023-03-03T01:15:46;102459.13;;;0.72;100.00
31538;BME280;18147;51.952;6.146;2023-03-03T01:18:12;102445.97;;;0.66;100.00
31538;BME280;18147;51.952;6.146;2023-03-03T01:20:38;102445.06;;;0.64;100.00
31538;BME280;18147;51.952;6.146;2023-03-03T01:23:04;102448.63;;;0.85;100.00
31538;BME280;18147;51.952;6.146;2023-03-03T01:25:30;102438.97;;;0.74;100.00
31538;BME280;18147;51.952;6.146;2023-03-03T01:27:56;102439.91;;;0.81;100.00
31538;BME280;18147;51.952;6.146;2023-03-03T01:30:22;102443.38;;;0.75;100.00
31538;BME280;18147;51.952;6.146;2023-03-03T01:32:48;102445.97;;;0.74;100.00
31538;BME280;18147;51.952;6.146;2023-03-03T01:35:13;102439.00;;;0.71;100.00
31538;BME280;18147;51.952;6.146;2023-03-03T01:37:39;102446.84;;;0.74;100.00
31538;BME280;18147;51.952;6.146;2023-03-03T01:40:07;102439.03;;;0.82;100.00
31538;BME280;18147;51.952;6.146;2023-03-03T01:42:32;102450.38;;;0.76;100.00
31538;BME280;18147;51.952;6.146;2023-03-03T01:45:27;102453.91;;;0.83;100.00
31538;BME280;18147;51.952;6.146;2023-03-03T01:53:17;102449.50;;;0.84;100.00
31538;BME280;18147;51.952;6.146;2023-03-03T01:55:44;102446.88;;;0.79;100.00
31538;BME280;18147;51.952;6.146;2023-03-03T01:58:18;102441.66;;;0.87;100.00
31538;BME280;18147;51.952;6.146;2023-03-03T02:00:49;102448.66;;;0.94;100.00
31538;BME280;18147;51.952;6.146;2023-03-03T02:03:16;102441.66;;;0.90;100.00
31538;BME280;18147;51.952;6.146;2023-03-03T02:05:42;102453.03;;;0.93;100.00
31538;BME280;18147;51.952;6.146;2023-03-03T02:08:11;102438.19;;;0.98;100.00
31538;BME280;18147;51.952;6.146;2023-03-03T02:10:43;102443.44;;;0.97;100.00
31538;BME280;18147;51.952;6.146;2023-03-03T02:13:10;102449.56;;;1.03;100.00
31538;BME280;18147;51.952;6.146;2023-03-03T02:15:35;102457.44;;;0.96;100.00
31538;BME280;18147;51.952;6.146;2023-03-03T02:18:08;102449.56;;;0.99;100.00
31538;BME280;18147;51.952;6.146;2023-03-03T02:23:28;102453.09;;;1.18;100.00
31538;BME280;18147;51.952;6.146;2023-03-03T02:28:23;102452.16;;;0.94;100.00
31538;BME280;18147;51.952;6.146;2023-03-03T02:30:54;102454.78;;;0.82;100.00
31538;BME280;18147;51.952;6.146;2023-03-03T02:33:20;102456.53;;;0.86;100.00
31538;BME280;18147;51.952;6.146;2023-03-03T02:35:45;102453.88;;;0.77;100.00
31538;BME280;18147;51.952;6.146;2023-03-03T02:41:35;102447.72;;;0.69;100.00
31538;BME280;18147;51.952;6.146;2023-03-03T02:43:54;102452.97;;;0.69;100.00
31538;BME280;18147;51.952;6.146;2023-03-03T02:46:22;102446.00;;;0.85;100.00
31538;BME280;18147;51.952;6.146;2023-03-03T02:48:48;102442.50;;;0.84;100.00
31538;BME280;18147;51.952;6.146;2023-03-03T02:51:13;102448.66;;;0.95;100.00
31538;BME280;18147;51.952;6.146;2023-03-03T02:53:39;102440.78;;;1.00;100.00
31538;BME280;18147;51.952;6.146;2023-03-03T02:56:05;102442.56;;;1.07;100.00
31538;BME280;18147;51.952;6.146;2023-03-03T02:58:34;102443.47;;;1.06;100.00
31538;BME280;18147;51.952;6.146;2023-03-03T03:01:00;102443.44;;;1.15;100.00
31538;BME280;18147;51.952;6.146;2023-03-03T03:03:26;102442.56;;;1.07;100.00
31538;BME280;18147;51.952;6.146;2023-03-03T03:05:52;102448.69;;;1.09;100.00
31538;BME280;18147;51.952;6.146;2023-03-03T03:08:19;102448.69;;;1.08;100.00
31538;BME280;18147;51.952;6.146;2023-03-03T03:10:45;102448.69;;;1.08;100.00
31538;BME280;18147;51.952;6.146;2023-03-03T03:13:11;102445.22;;;1.21;100.00
31538;BME280;18147;51.952;6.146;2023-03-03T03:15:37;102446.09;;;1.17;100.00
31538;BME280;18147;51.952;6.146;2023-03-03T03:18:02;102441.72;;;1.19;100.00
31538;BME280;18147;51.952;6.146;2023-03-03T03:20:28;102452.22;;;1.20;100.00
31538;BME280;18147;51.952;6.146;2023-03-03T03:22:54;102444.34;;;1.17;100.00
31538;BME280;18147;51.952;6.146;2023-03-03T03:25:19;102439.97;;;1.18;100.00
31538;BME280;18147;51.952;6.146;2023-03-03T03:27:45;102451.34;;;1.29;100.00
31538;BME280;18147;51.952;6.146;2023-03-03T03:30:12;102446.97;;;1.19;100.00
31538;BME280;18147;51.952;6.146;2023-03-03T03:32:38;102452.22;;;1.23;100.00
31538;BME280;18147;51.952;6.146;2023-03-03T03:35:04;102441.72;;;1.33;100.00
31538;BME280;18147;51.952;6.146;2023-03-03T03:37:30;102448.75;;;1.32;100.00
31538;BME280;18147;51.952;6.146;2023-03-03T03:39:56;102449.63;;;1.37;100.00
31538;BME280;18147;51.952;6.146;2023-03-03T03:42:22;102444.34;;;1.48;100.00
31538;BME280;18147;51.952;6.146;2023-03-03T03:44:48;102445.22;;;1.38;100.00
31538;BME280;18147;51.952;6.146;2023-03-03T03:47:15;102438.22;;;1.40;100.00
31538;BME280;18147;51.952;6.146;2023-03-03T03:49:41;102448.75;;;1.32;100.00
31538;BME280;18147;51.952;6.146;2023-03-03T03:52:07;102440.84;;;1.38;100.00
31538;BME280;18147;51.952;6.146;2023-03-03T03:54:34;102447.88;;;1.53;100.00
31538;BME280;18147;51.952;6.146;2023-03-03T03:57:00;102450.50;;;1.42;100.00
31538;BME280;18147;51.952;6.146;2023-03-03T03:59:26;102454.88;;;1.46;100.00
31538;BME280;18147;51.952;6.146;2023-03-03T04:01:52;102447.00;;;1.51;100.00
31538;BME280;18147;51.952;6.146;2023-03-03T04:04:20;102447.88;;;1.56;100.00
31538;BME280;18147;51.952;6.146;2023-03-03T04:06:46;102449.63;;;1.62;100.00
31538;BME280;18147;51.952;6.146;2023-03-03T04:09:12;102445.22;;;1.61;100.00
31538;BME280;18147;51.952;6.146;2023-03-03T04:11:38;102443.47;;;1.60;100.00
31538;BME280;18147;51.952;6.146;2023-03-03T04:14:05;102439.09;;;1.54;100.00
31538;BME280;18147;51.952;6.146;2023-03-03T04:16:33;102438.22;;;1.64;100.00
31538;BME280;18147;51.952;6.146;2023-03-03T04:18:58;102432.97;;;1.63;100.00
31538;BME280;18147;51.952;6.146;2023-03-03T04:21:24;102433.81;;;1.65;100.00
31538;BME280;18147;51.952;6.146;2023-03-03T04:23:52;102439.09;;;1.57;100.00
31538;BME280;18147;51.952;6.146;2023-03-03T04:26:18;102434.72;;;1.59;100.00
31538;BME280;18147;51.952;6.146;2023-03-03T04:28:44;102443.50;;;1.61;100.00
31538;BME280;18147;51.952;6.146;2023-03-03T04:31:10;102438.22;;;1.58;100.00
31538;BME280;18147;51.952;6.146;2023-03-03T04:33:36;102446.09;;;1.63;100.00
31538;BME280;18147;51.952;6.146;2023-03-03T04:36:04;102446.97;;;1.60;100.00
31538;BME280;18147;51.952;6.146;2023-03-03T04:38:30;102443.47;;;1.60;100.00
31538;BME280;18147;51.952;6.146;2023-03-03T04:40:55;102448.72;;;1.81;100.00
31538;BME280;18147;51.952;6.146;2023-03-03T04:43:22;102448.75;;;1.58;100.00
31538;BME280;18147;51.952;6.146;2023-03-03T04:45:48;102447.00;;;1.71;100.00
31538;BME280;18147;51.952;6.146;2023-03-03T04:48:15;102443.50;;;1.57;100.00
31538;BME280;18147;51.952;6.146;2023-03-03T04:50:41;102451.34;;;1.64;100.00
31538;BME280;18147;51.952;6.146;2023-03-03T04:53:08;102450.47;;;1.65;100.00
31538;BME280;18147;51.952;6.146;2023-03-03T04:55:35;102445.22;;;1.74;100.00
31538;BME280;18147;51.952;6.146;2023-03-03T04:58:01;102453.97;;;1.78;100.00
31538;BME280;18147;51.952;6.146;2023-03-03T05:00:26;102461.88;;;1.72;100.00
31538;BME280;18147;51.952;6.146;2023-03-03T05:02:52;102453.13;;;1.62;100.00
31538;BME280;18147;51.952;6.146;2023-03-03T05:05:18;102446.09;;;1.72;100.00
31538;BME280;18147;51.952;6.146;2023-03-03T05:07:44;102454.00;;;1.72;100.00
31538;BME280;18147;51.952;6.146;2023-03-03T05:10:09;102442.59;;;1.67;100.00
31538;BME280;18147;51.952;6.146;2023-03-03T05:12:35;102453.13;;;1.56;100.00
31538;BME280;18147;51.952;6.146;2023-03-03T05:15:01;102456.63;;;1.69;100.00
31538;BME280;18147;51.952;6.146;2023-03-03T05:17:26;102463.63;;;1.74;100.00
31538;BME280;18147;51.952;6.146;2023-03-03T05:19:52;102458.34;;;1.79;100.00
31538;BME280;18147;51.952;6.146;2023-03-03T05:22:18;102458.34;;;1.84;100.00
31538;BME280;18147;51.952;6.146;2023-03-03T05:24:44;102464.50;;;1.83;100.00
31538;BME280;18147;51.952;6.146;2023-03-03T05:27:13;102454.84;;;1.74;100.00
31538;BME280;18147;51.952;6.146;2023-03-03T05:29:38;102462.78;;;1.66;100.00
31538;BME280;18147;51.952;6.146;2023-03-03T05:32:04;102457.50;;;1.74;100.00
31538;BME280;18147;51.952;6.146;2023-03-03T05:34:29;102450.47;;;1.88;100.00
31538;BME280;18147;51.952;6.146;2023-03-03T05:36:55;102463.63;;;1.76;100.00
31538;BME280;18147;51.952;6.146;2023-03-03T05:39:20;102456.63;;;1.76;100.00
31538;BME280;18147;51.952;6.146;2023-03-03T05:41:46;102463.63;;;1.74;100.00
31538;BME280;18147;51.952;6.146;2023-03-03T05:44:11;102460.97;;;1.90;100.00
31538;BME280;18147;51.952;6.146;2023-03-03T05:46:37;102471.53;;;1.58;100.00
31538;BME280;18147;51.952;6.146;2023-03-03T05:49:02;102469.78;;;1.63;100.00
31538;BME280;18147;51.952;6.146;2023-03-03T05:51:29;102475.03;;;1.66;100.00
31538;BME280;18147;51.952;6.146;2023-03-03T05:53:54;102473.28;;;1.62;100.00
31538;BME280;18147;51.952;6.146;2023-03-03T05:56:20;102473.25;;;1.88;100.00
31538;BME280;18147;51.952;6.146;2023-03-03T05:58:45;102471.53;;;1.68;100.00
31538;BME280;18147;51.952;6.146;2023-03-03T06:01:11;102466.25;;;1.68;100.00
31538;BME280;18147;51.952;6.146;2023-03-03T06:03:37;102479.41;;;1.54;100.00
31538;BME280;18147;51.952;6.146;2023-03-03T06:06:02;102479.41;;;1.62;100.00
31538;BME280;18147;51.952;6.146;2023-03-03T06:08:28;102488.16;;;1.49;100.00
31538;BME280;18147;51.952;6.146;2023-03-03T06:10:54;102472.41;;;1.53;100.00
31538;BME280;18147;51.952;6.146;2023-03-03T06:13:20;102482.94;;;1.61;100.00
31538;BME280;18147;51.952;6.146;2023-03-03T06:15:46;102485.53;;;1.67;100.00
31538;BME280;18147;51.952;6.146;2023-03-03T06:18:11;102493.44;;;1.61;100.00
31538;BME280;18147;51.952;6.146;2023-03-03T06:20:37;102483.78;;;1.68;100.00
31538;BME280;18147;51.952;6.146;2023-03-03T06:23:03;102488.16;;;1.60;100.00
31538;BME280;18147;51.952;6.146;2023-03-03T06:25:28;102494.28;;;1.60;100.00
31538;BME280;18147;51.952;6.146;2023-03-03T06:27:54;102495.19;;;1.67;100.00
31538;BME280;18147;51.952;6.146;2023-03-03T06:30:19;102493.44;;;1.76;100.00
31538;BME280;18147;51.952;6.146;2023-03-03T06:32:45;102494.28;;;1.75;100.00
31538;BME280;18147;51.952;6.146;2023-03-03T06:35:11;102496.94;;;1.57;100.00
31538;BME280;18147;51.952;6.146;2023-03-03T06:37:36;102495.19;;;1.68;100.00
31538;BME280;18147;51.952;6.146;2023-03-03T06:40:03;102495.19;;;1.79;100.00
31538;BME280;18147;51.952;6.146;2023-03-03T06:42:29;102495.19;;;1.71;100.00
31538;BME280;18147;51.952;6.146;2023-03-03T06:44:55;102494.28;;;1.60;100.00
31538;BME280;18147;51.952;6.146;2023-03-03T06:47:21;102497.81;;;1.67;100.00
31538;BME280;18147;51.952;6.146;2023-03-03T06:49:47;102506.59;;;1.72;100.00
31538;BME280;18147;51.952;6.146;2023-03-03T06:52:30;102501.31;;;1.63;100.00
31538;BME280;18147;51.952;6.146;2023-03-03T06:54:58;102512.72;;;1.62;100.00
31538;BME280;18147;51.952;6.146;2023-03-03T06:57:28;102516.22;;;1.67;100.00
31538;BME280;18147;51.952;6.146;2023-03-03T06:59:57;102514.47;;;1.67;100.00
31538;BME280;18147;51.952;6.146;2023-03-03T07:02:24;102509.22;;;1.67;100.00
31538;BME280;18147;51.952;6.146;2023-03-03T07:04:52;102517.09;;;1.84;100.00
31538;BME280;18147;51.952;6.146;2023-03-03T07:07:24;102515.34;;;1.80;100.00
31538;BME280;18147;51.952;6.146;2023-03-03T07:09:52;102518.81;;;2.05;100.00
31538;BME280;18147;51.952;6.146;2023-03-03T07:12:21;102520.59;;;1.97;100.00
31538;BME280;18147;51.952;6.146;2023-03-03T07:14:52;102525.84;;;1.98;100.00
31538;BME280;18147;51.952;6.146;2023-03-03T07:17:23;102530.25;;;1.98;100.00
31538;BME280;18147;51.952;6.146;2023-03-03T07:19:49;102530.22;;;2.05;100.00
31538;BME280;18147;51.952;6.146;2023-03-03T07:22:20;102533.75;;;1.91;100.00
31538;BME280;18147;51.952;6.146;2023-03-03T07:24:48;102528.47;;;2.00;100.00
31538;BME280;18147;51.952;6.146;2023-03-03T07:27:28;102541.63;;;2.12;100.00
31538;BME280;18147;51.952;6.146;2023-03-03T07:30:46;102538.97;;;2.15;100.00
31538;BME280;18147;51.952;6.146;2023-03-03T07:32:47;102535.47;;;2.19;100.00
31538;BME280;18147;51.952;6.146;2023-03-03T07:35:40;102538.97;;;2.30;100.00
31538;BME280;18147;51.952;6.146;2023-03-03T07:38:16;102550.41;;;2.26;100.00
31538;BME280;18147;51.952;6.146;2023-03-03T07:40:49;102550.41;;;2.11;100.00
31538;BME280;18147;51.952;6.146;2023-03-03T07:43:37;102550.34;;;2.36;100.00
31538;BME280;18147;51.952;6.146;2023-03-03T07:46:21;102560.03;;;2.20;100.00
31538;BME280;18147;51.952;6.146;2023-03-03T07:48:48;102560.03;;;2.32;100.00
31538;BME280;18147;51.952;6.146;2023-03-03T07:51:21;102554.78;;;2.24;100.00
31538;BME280;18147;51.952;6.146;2023-03-03T07:53:49;102554.75;;;2.47;100.00
31538;BME280;18147;51.952;6.146;2023-03-03T07:56:20;102567.91;;;2.44;100.00
31538;BME280;18147;51.952;6.146;2023-03-03T07:58:47;102564.38;;;2.45;100.00
31538;BME280;18147;51.952;6.146;2023-03-03T08:03:48;102565.25;;;2.61;100.00
31538;BME280;18147;51.952;6.146;2023-03-03T08:12:27;102578.44;;;2.43;100.00
31538;BME280;18147;51.952;6.146;2023-03-03T08:14:54;102573.09;;;2.75;100.00
31538;BME280;18147;51.952;6.146;2023-03-03T08:17:25;102578.41;;;2.61;100.00
31538;BME280;18147;51.952;6.146;2023-03-03T08:19:57;102581.88;;;2.75;100.00
31538;BME280;18147;51.952;6.146;2023-03-03T08:22:33;102581.88;;;2.81;100.00
31538;BME280;18147;51.952;6.146;2023-03-03T08:25:02;102581.84;;;2.88;100.00
31538;BME280;18147;51.952;6.146;2023-03-03T08:27:27;102583.63;;;2.75;100.00
31538;BME280;18147;51.952;6.146;2023-03-03T08:29:53;102585.41;;;2.73;100.00
31538;BME280;18147;51.952;6.146;2023-03-03T08:32:18;102586.22;;;2.89;100.00
31538;BME280;18147;51.952;6.146;2023-03-03T08:34:44;102586.31;;;2.58;100.00
31538;BME280;18147;51.952;6.146;2023-03-03T08:37:09;102593.25;;;2.83;100.00
31538;BME280;18147;51.952;6.146;2023-03-03T08:39:35;102593.25;;;2.90;100.00
31538;BME280;18147;51.952;6.146;2023-03-03T08:42:00;102598.53;;;2.85;100.00
31538;BME280;18147;51.952;6.146;2023-03-03T08:44:27;102596.75;;;2.85;100.00
31538;BME280;18147;51.952;6.146;2023-03-03T08:46:53;102599.34;;;2.99;100.00
31538;BME280;18147;51.952;6.146;2023-03-03T08:49:20;102596.75;;;2.85;100.00
31538;BME280;18147;51.952;6.146;2023-03-03T08:51:45;102595.00;;;2.89;100.00
31538;BME280;18147;51.952;6.146;2023-03-03T08:54:11;102599.38;;;2.93;100.00
31538;BME280;18147;51.952;6.146;2023-03-03T08:56:36;102606.41;;;2.94;100.00
31538;BME280;18147;51.952;6.146;2023-03-03T08:59:02;102606.38;;;2.96;100.00
31538;BME280;18147;51.952;6.146;2023-03-03T09:01:28;102602.03;;;2.96;100.00
31538;BME280;18147;51.952;6.146;2023-03-03T09:03:53;102600.22;;;3.03;100.00
31538;BME280;18147;51.952;6.146;2023-03-03T09:06:19;102597.41;;;3.43;100.00
31538;BME280;18147;51.952;6.146;2023-03-03T09:08:44;102601.03;;;3.22;100.00
31538;BME280;18147;51.952;6.146;2023-03-03T09:11:13;102595.66;;;3.35;100.00
31538;BME280;18147;51.952;6.146;2023-03-03T09:13:39;102604.44;;;3.47;100.00
31538;BME280;18147;51.952;6.146;2023-03-03T09:16:14;102598.19;;;3.58;100.00
31538;BME280;18147;51.952;6.146;2023-03-03T09:18:41;102593.84;;;3.53;100.00
31538;BME280;18147;51.952;6.146;2023-03-03T09:21:33;102601.81;;;3.39;100.00
31538;BME280;18147;51.952;6.146;2023-03-03T09:23:59;102595.53;;;3.60;100.00
31538;BME280;18147;51.952;6.146;2023-03-03T09:26:47;102596.28;;;3.82;100.00
31538;BME280;18147;51.952;6.146;2023-03-03T09:31:47;102592.75;;;3.83;100.00
31538;BME280;18147;51.952;6.146;2023-03-03T09:36:47;102585.56;;;4.00;100.00
31538;BME280;18147;51.952;6.146;2023-03-03T09:39:21;102589.25;;;3.81;100.00
31538;BME280;18147;51.952;6.146;2023-03-03T09:53:15;102604.78;;;4.19;100.00
31538;BME280;18147;51.952;6.146;2023-03-03T10:01:38;102608.06;;;4.46;100.00
31538;BME280;18147;51.952;6.146;2023-03-03T10:12:27;102604.22;;;4.76;100.00
31538;BME280;18147;51.952;6.146;2023-03-03T10:15:41;102620.28;;;4.56;100.00
31538;BME280;18147;51.952;6.146;2023-03-03T10:18:22;102608.75;;;4.66;100.00
31538;BME280;18147;51.952;6.146;2023-03-03T10:21:06;102612.38;;;4.54;100.00
31538;BME280;18147;51.952;6.146;2023-03-03T10:23:52;102612.81;;;4.98;100.00
31538;BME280;18147;51.952;6.146;2023-03-03T10:30:11;102618.75;;;5.15;100.00
31538;BME280;18147;51.952;6.146;2023-03-03T10:35:02;102618.03;;;5.04;100.00
31538;BME280;18147;51.952;6.146;2023-03-03T10:37:37;102613.09;;;5.44;100.00
31538;BME280;18147;51.952;6.146;2023-03-03T10:40:34;102605.84;;;6.18;100.00
31538;BME280;18147;51.952;6.146;2023-03-03T10:43:27;102608.34;;;5.69;100.00
31538;BME280;18147;51.952;6.146;2023-03-03T10:51:33;102609.63;;;6.55;100.00
31538;BME280;18147;51.952;6.146;2023-03-03T10:59:54;102598.06;;;6.59;100.00
31538;BME280;18147;51.952;6.146;2023-03-03T11:02:25;102598.41;;;6.88;100.00
31538;BME280;18147;51.952;6.146;2023-03-03T11:08:06;102597.19;;;6.58;100.00
31538;BME280;18147;51.952;6.146;2023-03-03T11:10:57;102597.28;;;7.40;100.00
31538;BME280;18147;51.952;6.146;2023-03-03T11:16:14;102597.88;;;6.69;98.36
31538;BME280;18147;51.952;6.146;2023-03-03T11:21:50;102594.25;;;6.73;100.00
31538;BME280;18147;51.952;6.146;2023-03-03T11:30:25;102579.38;;;7.89;95.31
31538;BME280;18147;51.952;6.146;2023-03-03T11:35:29;102575.88;;;7.08;98.59
31538;BME280;18147;51.952;6.146;2023-03-03T11:41:07;102569.69;;;7.09;98.41
31538;BME280;18147;51.952;6.146;2023-03-03T11:43:55;102572.78;;;6.86;99.93
31538;BME280;18147;51.952;6.146;2023-03-03T11:46:29;102572.75;;;6.87;98.79
31538;BME280;18147;51.952;6.146;2023-03-03T11:49:05;102578.56;;;6.63;100.00
31538;BME280;18147;51.952;6.146;2023-03-03T11:51:43;102573.69;;;6.85;100.00
31538;BME280;18147;51.952;6.146;2023-03-03T11:54:37;102570.31;;;6.30;100.00
31538;BME280;18147;51.952;6.146;2023-03-03T12:18:45;102548.88;;;7.68;95.79
31538;BME280;18147;51.952;6.146;2023-03-03T12:26:57;102533.03;;;8.33;89.75
31538;BME280;18147;51.952;6.146;2023-03-03T12:29:34;102534.69;;;8.40;89.25
31538;BME280;18147;51.952;6.146;2023-03-03T12:32:18;102524.28;;;8.64;87.86
31538;BME280;18147;51.952;6.146;2023-03-03T12:35:05;102527.81;;;8.64;89.47
31538;BME280;18147;51.952;6.146;2023-03-03T12:37:56;102526.41;;;8.51;86.48
31538;BME280;18147;51.952;6.146;2023-03-03T12:40:32;102529.25;;;8.76;84.93
31538;BME280;18147;51.952;6.146;2023-03-03T12:46:27;102531.09;;;7.71;89.08
31538;BME280;18147;51.952;6.146;2023-03-03T12:48:44;102525.47;;;8.19;87.94
31538;BME280;18147;51.952;6.146;2023-03-03T12:57:34;102509.22;;;8.64;81.57
31538;BME280;18147;51.952;6.146;2023-03-03T13:03:02;102504.50;;;8.41;83.24
31538;BME280;18147;51.952;6.146;2023-03-03T13:13:21;102502.41;;;8.20;82.44
31538;BME280;18147;51.952;6.146;2023-03-03T13:21:34;102487.88;;;8.66;81.36
31538;BME280;18147;51.952;6.146;2023-03-03T13:26:56;102483.97;;;8.77;81.49
31538;BME280;18147;51.952;6.146;2023-03-03T13:29:36;102488.16;;;8.86;81.43
31538;BME280;18147;51.952;6.146;2023-03-03T13:32:39;102477.44;;;9.19;80.73
31538;BME280;18147;51.952;6.146;2023-03-03T13:35:10;102485.44;;;8.88;80.79
31538;BME280;18147;51.952;6.146;2023-03-03T13:37:48;102484.41;;;8.64;78.37
31538;BME280;18147;51.952;6.146;2023-03-03T13:40:38;102477.56;;;8.55;80.59
31538;BME280;18147;51.952;6.146;2023-03-03T13:43:22;102486.16;;;8.94;82.22
31538;BME280;18147;51.952;6.146;2023-03-03T14:02:46;102472.84;;;8.32;77.64
31538;BME280;18147;51.952;6.146;2023-03-03T14:05:44;102466.59;;;9.23;78.77
31538;BME280;18147;51.952;6.146;2023-03-03T14:13:18;102467.94;;;9.08;72.49
31538;BME280;18147;51.952;6.146;2023-03-03T14:18:30;102455.75;;;9.57;70.29
31538;BME280;18147;51.952;6.146;2023-03-03T14:21:09;102448.78;;;9.80;68.98
31538;BME280;18147;51.952;6.146;2023-03-03T14:23:51;102453.81;;;10.14;71.23
31538;BME280;18147;51.952;6.146;2023-03-03T14:26:19;102461.09;;;9.84;74.32
31538;BME280;18147;51.952;6.146;2023-03-03T14:28:47;102452.66;;;9.96;73.07
31538;BME280;18147;51.952;6.146;2023-03-03T14:33:45;102450.59;;;9.78;74.61
31538;BME280;18147;51.952;6.146;2023-03-03T14:36:26;102450.78;;;8.91;75.82
31538;BME280;18147;51.952;6.146;2023-03-03T14:38:52;102448.78;;;8.97;76.91
31538;BME280;18147;51.952;6.146;2023-03-03T14:41:19;102454.38;;;8.90;76.40
31538;BME280;18147;51.952;6.146;2023-03-03T14:43:58;102454.69;;;8.79;75.25
31538;BME280;18147;51.952;6.146;2023-03-03T14:46:34;102459.16;;;8.47;76.96
31538;BME280;18147;51.952;6.146;2023-03-03T14:49:14;102447.66;;;8.76;76.10
31538;BME280;18147;51.952;6.146;2023-03-03T14:51:48;102452.94;;;8.78;75.55
31538;BME280;18147;51.952;6.146;2023-03-03T14:54:29;102443.81;;;8.87;74.62
31538;BME280;18147;51.952;6.146;2023-03-03T14:57:49;102442.97;;;9.14;71.87
31538;BME280;18147;51.952;6.146;2023-03-03T15:02:37;102436.56;;;8.92;73.22
31538;BME280;18147;51.952;6.146;2023-03-03T15:05:28;102446.13;;;8.69;73.23
31538;BME280;18147;51.952;6.146;2023-03-03T15:10:42;102451.69;;;8.60;72.86
31538;BME280;18147;51.952;6.146;2023-03-03T15:13:30;102448.28;;;8.22;74.08
31538;BME280;18147;51.952;6.146;2023-03-03T15:16:01;102438.59;;;8.21;73.79
31538;BME280;18147;51.952;6.146;2023-03-03T15:18:29;102438.75;;;8.15;74.15
31538;BME280;18147;51.952;6.146;2023-03-03T15:21:17;102431.91;;;8.70;72.47
31538;BME280;18147;51.952;6.146;2023-03-03T15:24:12;102427.25;;;8.77;70.67
31538;BME280;18147;51.952;6.146;2023-03-03T15:27:17;102425.72;;;8.70;72.50
31538;BME280;18147;51.952;6.146;2023-03-03T15:29:44;102430.63;;;8.52;73.56
31538;BME280;18147;51.952;6.146;2023-03-03T15:38:22;102410.28;;;8.51;73.39
31538;BME280;18147;51.952;6.146;2023-03-03T15:41:11;102410.94;;;8.28;74.40
31538;BME280;18147;51.952;6.146;2023-03-03T15:43:52;102406.25;;;7.73;75.81
31538;BME280;18147;51.952;6.146;2023-03-03T15:46:32;102410.84;;;8.00;74.32
31538;BME280;18147;51.952;6.146;2023-03-03T15:49:14;102407.19;;;8.04;76.12
31538;BME280;18147;51.952;6.146;2023-03-03T15:57:19;102403.19;;;8.21;76.70
31538;BME280;18147;51.952;6.146;2023-03-03T16:00:08;102406.81;;;8.18;75.15
31538;BME280;18147;51.952;6.146;2023-03-03T16:02:56;102392.84;;;8.10;76.62
31538;BME280;18147;51.952;6.146;2023-03-03T16:05:42;102404.19;;;7.84;77.89
31538;BME280;18147;51.952;6.146;2023-03-03T16:08:40;102405.41;;;8.05;78.74
31538;BME280;18147;51.952;6.146;2023-03-03T16:11:20;102406.47;;;7.98;78.37
31538;BME280;18147;51.952;6.146;2023-03-03T16:19:17;102405.47;;;8.33;77.56
31538;BME280;18147;51.952;6.146;2023-03-03T16:22:08;102403.72;;;8.01;77.87
31538;BME280;18147;51.952;6.146;2023-03-03T16:27:30;102407.59;;;7.89;80.03
31538;BME280;18147;51.952;6.146;2023-03-03T16:33:04;102404.78;;;7.95;78.41
31538;BME280;18147;51.952;6.146;2023-03-03T16:36:26;102405.19;;;7.80;80.62
31538;BME280;18147;51.952;6.146;2023-03-03T16:38:37;102411.72;;;7.67;81.72
31538;BME280;18147;51.952;6.146;2023-03-03T16:44:03;102410.91;;;7.65;81.87
31538;BME280;18147;51.952;6.146;2023-03-03T16:46:37;102416.25;;;7.63;82.19
31538;BME280;18147;51.952;6.146;2023-03-03T16:52:11;102428.03;;;7.53;86.20
31538;BME280;18147;51.952;6.146;2023-03-03T16:54:54;102426.47;;;7.43;87.31